sensor_id;sensor_type;location;lat;lon;timestamp;pressure;altitude;pressure_sealevel;temperature;humidity
40794;BME280;26502;51.886;15.604;2022-08-01T00:02:27;100355.34;;;18.55;53.17
40794;BME280;26502;51.886;15.604;2022-08-01T00:07:36;100353.38;;;18.52;53.44
40794;BME280;26502;51.886;15.604;2022-08-01T00:12:45;100339.58;;;18.57;53.48
40794;BME280;26502;51.886;15.604;2022-08-01T00:17:52;100335.80;;;18.59;53.59
40794;BME280;26502;51.886;15.604;2022-08-01T00:22:59;100334.95;;;18.54;53.70
40794;BME280;26502;51.886;15.604;2022-08-01T00:28:06;100336.45;;;18.40;53.80
40794;BME280;26502;51.886;15.604;2022-08-01T00:33:14;100335.72;;;18.35;54.17
40794;BME280;26502;51.886;15.604;2022-08-01T00:38:22;100334.80;;;18.43;54.21
40794;BME280;26502;51.886;15.604;2022-08-01T00:43:28;100332.02;;;18.49;54.20
40794;BME280;26502;51.886;15.604;2022-08-01T00:48:35;100328.44;;;18.51;54.33
40794;BME280;26502;51.886;15.604;2022-08-01T00:53:43;100324.11;;;18.54;54.31
40794;BME280;26502;51.886;15.604;2022-08-01T00:58:50;100321.66;;;18.48;54.56
40794;BME280;26502;51.886;15.604;2022-08-01T01:03:57;100316.91;;;18.51;54.85
40794;BME280;26502;51.886;15.604;2022-08-01T01:09:19;100320.23;;;18.45;54.83
40794;BME280;26502;51.886;15.604;2022-08-01T01:14:35;100325.02;;;18.29;54.90
40794;BME280;26502;51.886;15.604;2022-08-01T01:19:47;100316.86;;;18.16;55.39
40794;BME280;26502;51.886;15.604;2022-08-01T01:25:09;100311.90;;;18.26;55.49
40794;BME280;26502;51.886;15.604;2022-08-01T01:30:22;100308.70;;;18.30;55.69
40794;BME280;26502;51.886;15.604;2022-08-01T01:35:35;100309.40;;;18.41;55.86
40794;BME280;26502;51.886;15.604;2022-08-01T01:40:44;100312.45;;;18.36;55.81
40794;BME280;26502;51.886;15.604;2022-08-01T01:45:53;100308.65;;;18.29;55.97
40794;BME280;26502;51.886;15.604;2022-08-01T01:51:01;100308.54;;;18.41;56.19
40794;BME280;26502;51.886;15.604;2022-08-01T01:56:10;100305.92;;;18.49;56.05
40794;BME280;26502;51.886;15.604;2022-08-01T02:01:19;100301.82;;;18.46;56.11
40794;BME280;26502;51.886;15.604;2022-08-01T02:06:28;100302.91;;;18.49;56.18
40794;BME280;26502;51.886;15.604;2022-08-01T02:11:35;100301.39;;;18.42;56.37
40794;BME280;26502;51.886;15.604;2022-08-01T02:16:47;100300.27;;;18.35;56.44
40794;BME280;26502;51.886;15.604;2022-08-01T02:22:01;100304.50;;;18.31;56.60
40794;BME280;26502;51.886;15.604;2022-08-01T02:27:12;100305.22;;;18.26;56.55
40794;BME280;26502;51.886;15.604;2022-08-01T02:32:23;100300.95;;;18.23;56.53
40794;BME280;26502;51.886;15.604;2022-08-01T02:37:35;100292.33;;;18.05;56.68
40794;BME280;26502;51.886;15.604;2022-08-01T02:42:45;100289.33;;;17.89;56.87
40794;BME280;26502;51.886;15.604;2022-08-01T02:47:55;100286.02;;;17.79;57.22
40794;BME280;26502;51.886;15.604;2022-08-01T02:53:05;100286.46;;;17.70;57.49
40794;BME280;26502;51.886;15.604;2022-08-01T02:58:16;100286.76;;;17.63;57.73
40794;BME280;26502;51.886;15.604;2022-08-01T03:03:25;100290.77;;;17.54;58.08
40794;BME280;26502;51.886;15.604;2022-08-01T03:08:33;100289.55;;;17.53;58.26
40794;BME280;26502;51.886;15.604;2022-08-01T03:13:41;100295.16;;;17.47;58.64
40794;BME280;26502;51.886;15.604;2022-08-01T03:18:50;100299.98;;;17.42;58.93
40794;BME280;26502;51.886;15.604;2022-08-01T03:23:59;100307.92;;;17.36;59.15
40794;BME280;26502;51.886;15.604;2022-08-01T03:29:11;100310.14;;;17.38;59.60
40794;BME280;26502;51.886;15.604;2022-08-01T03:34:19;100303.21;;;17.45;59.88
40794;BME280;26502;51.886;15.604;2022-08-01T03:39:34;100297.99;;;17.53;60.11
40794;BME280;26502;51.886;15.604;2022-08-01T03:44:51;100298.41;;;17.55;60.54
40794;BME280;26502;51.886;15.604;2022-08-01T03:50:00;100302.42;;;17.59;60.66
40794;BME280;26502;51.886;15.604;2022-08-01T03:55:11;100305.13;;;17.64;60.86
40794;BME280;26502;51.886;15.604;2022-08-01T04:00:20;100312.60;;;17.71;61.04
40794;BME280;26502;51.886;15.604;2022-08-01T04:05:27;100315.22;;;17.80;61.14
40794;BME280;26502;51.886;15.604;2022-08-01T04:10:34;100321.11;;;17.92;61.25
40794;BME280;26502;51.886;15.604;2022-08-01T04:15:42;100322.91;;;18.05;61.22
40794;BME280;26502;51.886;15.604;2022-08-01T04:20:49;100330.20;;;18.11;61.32
40794;BME280;26502;51.886;15.604;2022-08-01T04:25:57;100334.23;;;18.17;61.44
40794;BME280;26502;51.886;15.604;2022-08-01T04:31:08;100337.91;;;18.29;61.35
40794;BME280;26502;51.886;15.604;2022-08-01T04:36:19;100340.84;;;18.41;61.46
40794;BME280;26502;51.886;15.604;2022-08-01T04:41:31;100346.44;;;18.51;61.40
40794;BME280;26502;51.886;15.604;2022-08-01T04:46:38;100342.53;;;18.58;61.50
40794;BME280;26502;51.886;15.604;2022-08-01T04:51:54;100344.81;;;18.64;61.45
40794;BME280;26502;51.886;15.604;2022-08-01T04:57:03;100345.56;;;18.68;61.71
40794;BME280;26502;51.886;15.604;2022-08-01T05:02:13;100352.73;;;18.79;61.87
40794;BME280;26502;51.886;15.604;2022-08-01T05:07:21;100356.34;;;18.97;61.81
40794;BME280;26502;51.886;15.604;2022-08-01T05:12:28;100359.67;;;19.15;61.79
40794;BME280;26502;51.886;15.604;2022-08-01T05:17:36;100360.98;;;19.32;61.60
40794;BME280;26502;51.886;15.604;2022-08-01T05:22:44;100359.73;;;19.39;61.53
40794;BME280;26502;51.886;15.604;2022-08-01T05:27:51;100360.08;;;19.47;61.58
40794;BME280;26502;51.886;15.604;2022-08-01T05:32:58;100360.67;;;19.65;61.57
40794;BME280;26502;51.886;15.604;2022-08-01T05:38:05;100366.10;;;19.79;61.36
40794;BME280;26502;51.886;15.604;2022-08-01T05:43:12;100363.90;;;19.87;61.15
40794;BME280;26502;51.886;15.604;2022-08-01T05:48:19;100359.72;;;19.92;61.39
40794;BME280;26502;51.886;15.604;2022-08-01T05:53:26;100355.89;;;20.11;61.32
40794;BME280;26502;51.886;15.604;2022-08-01T05:58:33;100354.90;;;20.34;61.25
40794;BME280;26502;51.886;15.604;2022-08-01T06:03:41;100357.65;;;20.51;61.24
40794;BME280;26502;51.886;15.604;2022-08-01T06:08:48;100363.17;;;20.68;61.13
40794;BME280;26502;51.886;15.604;2022-08-01T06:13:55;100368.45;;;20.84;61.03
40794;BME280;26502;51.886;15.604;2022-08-01T06:19:02;100372.27;;;20.97;60.87
40794;BME280;26502;51.886;15.604;2022-08-01T06:24:10;100373.30;;;21.04;60.72
40794;BME280;26502;51.886;15.604;2022-08-01T06:29:17;100372.08;;;21.06;60.56
40794;BME280;26502;51.886;15.604;2022-08-01T06:34:24;100371.33;;;21.11;60.52
40794;BME280;26502;51.886;15.604;2022-08-01T06:39:32;100375.61;;;21.16;60.45
40794;BME280;26502;51.886;15.604;2022-08-01T06:44:39;100375.23;;;21.20;60.36
40794;BME280;26502;51.886;15.604;2022-08-01T06:49:45;100381.01;;;21.16;60.42
40794;BME280;26502;51.886;15.604;2022-08-01T06:54:53;100384.88;;;21.24;60.60
40794;BME280;26502;51.886;15.604;2022-08-01T07:00:03;100383.23;;;21.40;60.34
40794;BME280;26502;51.886;15.604;2022-08-01T07:05:13;100388.40;;;21.38;60.18
40794;BME280;26502;51.886;15.604;2022-08-01T07:10:20;100385.00;;;21.44;60.09
40794;BME280;26502;51.886;15.604;2022-08-01T07:15:28;100386.80;;;21.49;60.21
40794;BME280;26502;51.886;15.604;2022-08-01T07:20:35;100381.93;;;21.63;60.18
40794;BME280;26502;51.886;15.604;2022-08-01T07:25:44;100378.72;;;21.81;60.19
40794;BME280;26502;51.886;15.604;2022-08-01T07:30:51;100376.09;;;22.08;59.95
40794;BME280;26502;51.886;15.604;2022-08-01T07:35:59;100378.42;;;22.21;59.81
40794;BME280;26502;51.886;15.604;2022-08-01T07:41:06;100382.73;;;22.32;59.80
40794;BME280;26502;51.886;15.604;2022-08-01T07:46:13;100389.88;;;22.37;59.69
40794;BME280;26502;51.886;15.604;2022-08-01T07:51:20;100384.86;;;22.51;59.39
40794;BME280;26502;51.886;15.604;2022-08-01T07:56:28;100385.84;;;22.57;59.51
40794;BME280;26502;51.886;15.604;2022-08-01T08:01:35;100382.64;;;22.77;59.39
40794;BME280;26502;51.886;15.604;2022-08-01T08:06:42;100380.51;;;22.93;58.92
40794;BME280;26502;51.886;15.604;2022-08-01T08:11:48;100382.30;;;22.93;58.71
40794;BME280;26502;51.886;15.604;2022-08-01T08:16:56;100388.42;;;22.87;58.53
40794;BME280;26502;51.886;15.604;2022-08-01T08:22:03;100384.17;;;22.84;58.62
40794;BME280;26502;51.886;15.604;2022-08-01T08:27:10;100388.86;;;23.15;58.03
40794;BME280;26502;51.886;15.604;2022-08-01T08:32:18;100384.98;;;23.24;57.85
40794;BME280;26502;51.886;15.604;2022-08-01T08:37:25;100383.73;;;23.54;57.80
40794;BME280;26502;51.886;15.604;2022-08-01T08:42:33;100389.53;;;23.70;57.70
40794;BME280;26502;51.886;15.604;2022-08-01T08:47:43;100389.08;;;23.75;57.01
40794;BME280;26502;51.886;15.604;2022-08-01T08:52:54;100392.17;;;23.76;57.09
40794;BME280;26502;51.886;15.604;2022-08-01T08:58:02;100399.33;;;23.79;56.74
40794;BME280;26502;51.886;15.604;2022-08-01T09:03:11;100403.59;;;23.94;56.74
40794;BME280;26502;51.886;15.604;2022-08-01T09:08:19;100400.59;;;24.30;56.28
40794;BME280;26502;51.886;15.604;2022-08-01T09:13:25;100396.69;;;24.27;55.80
40794;BME280;26502;51.886;15.604;2022-08-01T09:18:34;100407.60;;;24.15;55.28
40794;BME280;26502;51.886;15.604;2022-08-01T09:23:46;100410.63;;;24.18;55.49
40794;BME280;26502;51.886;15.604;2022-08-01T09:28:54;100410.33;;;24.29;55.61
40794;BME280;26502;51.886;15.604;2022-08-01T09:34:02;100405.96;;;24.29;54.81
40794;BME280;26502;51.886;15.604;2022-08-01T09:39:15;100405.05;;;24.62;55.27
40794;BME280;26502;51.886;15.604;2022-08-01T09:44:38;100406.01;;;24.88;54.42
40794;BME280;26502;51.886;15.604;2022-08-01T09:49:52;100414.25;;;24.58;54.07
40794;BME280;26502;51.886;15.604;2022-08-01T09:55:02;100418.64;;;24.27;54.13
40794;BME280;26502;51.886;15.604;2022-08-01T10:00:18;100422.17;;;24.11;54.25
40794;BME280;26502;51.886;15.604;2022-08-01T10:05:34;100428.63;;;24.02;54.16
40794;BME280;26502;51.886;15.604;2022-08-01T10:10:41;100429.32;;;23.97;54.48
40794;BME280;26502;51.886;15.604;2022-08-01T10:15:49;100429.23;;;23.87;54.43
40794;BME280;26502;51.886;15.604;2022-08-01T10:20:57;100441.54;;;23.66;54.68
40794;BME280;26502;51.886;15.604;2022-08-01T10:26:06;100438.17;;;23.47;55.00
40794;BME280;26502;51.886;15.604;2022-08-01T10:31:14;100437.03;;;23.44;55.34
40794;BME280;26502;51.886;15.604;2022-08-01T10:36:23;100438.06;;;23.64;55.61
40794;BME280;26502;51.886;15.604;2022-08-01T10:41:31;100435.09;;;24.08;55.48
40794;BME280;26502;51.886;15.604;2022-08-01T10:46:47;100437.38;;;23.95;55.28
40794;BME280;26502;51.886;15.604;2022-08-01T10:51:57;100441.10;;;23.81;55.15
40794;BME280;26502;51.886;15.604;2022-08-01T10:57:04;100444.25;;;23.58;55.23
40794;BME280;26502;51.886;15.604;2022-08-01T11:02:12;100440.27;;;23.46;55.59
40794;BME280;26502;51.886;15.604;2022-08-01T11:07:45;100443.42;;;23.69;55.84
40794;BME280;26502;51.886;15.604;2022-08-01T11:12:53;100442.55;;;23.89;55.52
40794;BME280;26502;51.886;15.604;2022-08-01T11:18:28;100439.91;;;23.92;54.93
40794;BME280;26502;51.886;15.604;2022-08-01T11:23:33;100438.35;;;24.20;54.98
40794;BME280;26502;51.886;15.604;2022-08-01T11:29:15;100439.06;;;24.49;54.51
40794;BME280;26502;51.886;15.604;2022-08-01T11:40:15;100436.73;;;24.65;53.58
40794;BME280;26502;51.886;15.604;2022-08-01T11:45:23;100432.00;;;24.78;53.42
40794;BME280;26502;51.886;15.604;2022-08-01T11:50:51;100431.04;;;25.35;53.42
40794;BME280;26502;51.886;15.604;2022-08-01T11:55:59;100427.94;;;25.84;52.88
40794;BME280;26502;51.886;15.604;2022-08-01T12:01:07;100426.46;;;26.17;52.47
40794;BME280;26502;51.886;15.604;2022-08-01T12:06:29;100423.64;;;26.22;51.78
40794;BME280;26502;51.886;15.604;2022-08-01T12:11:36;100421.45;;;26.11;51.21
40794;BME280;26502;51.886;15.604;2022-08-01T12:16:52;100425.34;;;26.14;51.11
40794;BME280;26502;51.886;15.604;2022-08-01T12:22:13;100423.55;;;26.37;50.81
40794;BME280;26502;51.886;15.604;2022-08-01T12:27:28;100427.69;;;26.16;50.35
40794;BME280;26502;51.886;15.604;2022-08-01T12:32:37;100427.73;;;25.92;50.05
40794;BME280;26502;51.886;15.604;2022-08-01T12:37:45;100440.27;;;25.58;50.32
40794;BME280;26502;51.886;15.604;2022-08-01T12:42:54;100449.98;;;24.70;50.93
40794;BME280;26502;51.886;15.604;2022-08-01T12:48:02;100451.15;;;24.29;52.15
40794;BME280;26502;51.886;15.604;2022-08-01T12:53:14;100467.61;;;23.90;53.42
40794;BME280;26502;51.886;15.604;2022-08-01T12:58:21;100478.33;;;23.72;54.59
40794;BME280;26502;51.886;15.604;2022-08-01T13:03:29;100484.52;;;23.43;55.34
40794;BME280;26502;51.886;15.604;2022-08-01T13:08:37;100492.34;;;23.23;56.04
40794;BME280;26502;51.886;15.604;2022-08-01T13:13:47;100505.05;;;23.08;57.14
40794;BME280;26502;51.886;15.604;2022-08-01T13:18:56;100514.21;;;22.50;58.60
40794;BME280;26502;51.886;15.604;2022-08-01T13:24:06;100515.39;;;22.14;60.02
40794;BME280;26502;51.886;15.604;2022-08-01T13:29:17;100519.14;;;21.97;60.89
40794;BME280;26502;51.886;15.604;2022-08-01T13:34:32;100518.27;;;21.94;62.20
40794;BME280;26502;51.886;15.604;2022-08-01T13:39:40;100520.42;;;22.08;62.53
40794;BME280;26502;51.886;15.604;2022-08-01T13:44:51;100528.45;;;22.02;63.43
40794;BME280;26502;51.886;15.604;2022-08-01T13:49:58;100530.61;;;21.78;63.67
40794;BME280;26502;51.886;15.604;2022-08-01T13:55:08;100533.65;;;21.72;63.97
40794;BME280;26502;51.886;15.604;2022-08-01T14:00:15;100541.18;;;21.68;64.08
40794;BME280;26502;51.886;15.604;2022-08-01T14:05:22;100544.23;;;21.60;64.28
40794;BME280;26502;51.886;15.604;2022-08-01T14:10:29;100554.80;;;21.52;64.61
40794;BME280;26502;51.886;15.604;2022-08-01T14:15:38;100555.17;;;21.38;65.28
40794;BME280;26502;51.886;15.604;2022-08-01T14:20:46;100559.36;;;21.49;65.30
40794;BME280;26502;51.886;15.604;2022-08-01T14:25:54;100562.88;;;21.70;65.38
40794;BME280;26502;51.886;15.604;2022-08-01T14:31:02;100569.33;;;21.93;65.20
40794;BME280;26502;51.886;15.604;2022-08-01T14:36:09;100569.48;;;21.92;65.18
40794;BME280;26502;51.886;15.604;2022-08-01T14:41:16;100573.00;;;22.02;65.04
40794;BME280;26502;51.886;15.604;2022-08-01T14:46:23;100573.60;;;22.12;65.10
40794;BME280;26502;51.886;15.604;2022-08-01T14:51:31;100574.85;;;22.17;64.59
40794;BME280;26502;51.886;15.604;2022-08-01T14:56:40;100578.96;;;22.30;64.47
40794;BME280;26502;51.886;15.604;2022-08-01T15:01:47;100577.16;;;22.39;63.88
40794;BME280;26502;51.886;15.604;2022-08-01T15:06:55;100577.69;;;22.31;63.86
40794;BME280;26502;51.886;15.604;2022-08-01T15:12:02;100578.02;;;22.26;63.95
40794;BME280;26502;51.886;15.604;2022-08-01T15:17:09;100579.95;;;22.34;63.71
40794;BME280;26502;51.886;15.604;2022-08-01T15:22:18;100582.55;;;22.42;63.45
40794;BME280;26502;51.886;15.604;2022-08-01T15:27:27;100582.34;;;22.40;63.32
40794;BME280;26502;51.886;15.604;2022-08-01T15:32:35;100582.10;;;22.64;63.31
40794;BME280;26502;51.886;15.604;2022-08-01T15:37:42;100581.18;;;22.99;62.92
40794;BME280;26502;51.886;15.604;2022-08-01T15:42:49;100579.64;;;23.52;62.84
40794;BME280;26502;51.886;15.604;2022-08-01T15:47:57;100584.23;;;24.12;62.06
40794;BME280;26502;51.886;15.604;2022-08-01T15:53:06;100584.54;;;24.65;60.58
40794;BME280;26502;51.886;15.604;2022-08-01T15:58:13;100583.83;;;24.72;60.51
40794;BME280;26502;51.886;15.604;2022-08-01T16:03:20;100579.83;;;24.86;59.46
40794;BME280;26502;51.886;15.604;2022-08-01T16:08:28;100579.02;;;24.92;59.02
40794;BME280;26502;51.886;15.604;2022-08-01T16:13:35;100579.55;;;24.55;59.06
40794;BME280;26502;51.886;15.604;2022-08-01T16:18:44;100573.70;;;24.54;59.16
40794;BME280;26502;51.886;15.604;2022-08-01T16:23:51;100568.61;;;24.64;58.82
40794;BME280;26502;51.886;15.604;2022-08-01T16:28:58;100572.15;;;24.37;58.89
40794;BME280;26502;51.886;15.604;2022-08-01T16:34:06;100568.66;;;24.44;59.11
40794;BME280;26502;51.886;15.604;2022-08-01T16:39:13;100573.27;;;24.66;58.61
40794;BME280;26502;51.886;15.604;2022-08-01T16:44:20;100568.86;;;24.77;57.95
40794;BME280;26502;51.886;15.604;2022-08-01T16:49:27;100577.50;;;24.66;57.81
40794;BME280;26502;51.886;15.604;2022-08-01T16:54:36;100573.32;;;24.60;57.33
40794;BME280;26502;51.886;15.604;2022-08-01T16:59:43;100574.07;;;24.36;56.97
40794;BME280;26502;51.886;15.604;2022-08-01T17:04:51;100577.02;;;24.15;56.92
40794;BME280;26502;51.886;15.604;2022-08-01T17:09:59;100578.35;;;24.07;56.91
40794;BME280;26502;51.886;15.604;2022-08-01T17:15:08;100585.30;;;23.78;56.73
40794;BME280;26502;51.886;15.604;2022-08-01T17:20:15;100585.60;;;23.60;57.05
40794;BME280;26502;51.886;15.604;2022-08-01T17:25:24;100591.39;;;23.38;57.07
40794;BME280;26502;51.886;15.604;2022-08-01T17:30:32;100597.71;;;23.21;57.46
40794;BME280;26502;51.886;15.604;2022-08-01T17:35:40;100599.91;;;23.13;57.66
40794;BME280;26502;51.886;15.604;2022-08-01T17:40:48;100608.17;;;23.03;57.66
40794;BME280;26502;51.886;15.604;2022-08-01T17:45:55;100607.65;;;22.91;57.92
40794;BME280;26502;51.886;15.604;2022-08-01T17:51:02;100612.06;;;22.83;58.21
40794;BME280;26502;51.886;15.604;2022-08-01T17:56:11;100617.00;;;22.75;57.99
40794;BME280;26502;51.886;15.604;2022-08-01T18:01:18;100613.44;;;22.68;58.05
40794;BME280;26502;51.886;15.604;2022-08-01T18:06:26;100620.80;;;22.54;58.33
40794;BME280;26502;51.886;15.604;2022-08-01T18:11:36;100629.15;;;22.41;58.25
40794;BME280;26502;51.886;15.604;2022-08-01T18:16:43;100634.37;;;22.32;58.52
40794;BME280;26502;51.886;15.604;2022-08-01T18:21:51;100634.85;;;22.13;58.52
40794;BME280;26502;51.886;15.604;2022-08-01T18:26:58;100638.10;;;22.08;58.85
40794;BME280;26502;51.886;15.604;2022-08-01T18:32:06;100639.65;;;22.11;58.86
40794;BME280;26502;51.886;15.604;2022-08-01T18:37:13;100645.31;;;22.08;58.88
40794;BME280;26502;51.886;15.604;2022-08-01T18:42:19;100658.30;;;21.98;58.92
40794;BME280;26502;51.886;15.604;2022-08-01T18:47:28;100666.16;;;21.78;59.10
40794;BME280;26502;51.886;15.604;2022-08-01T18:52:35;100675.73;;;21.76;59.31
40794;BME280;26502;51.886;15.604;2022-08-01T18:57:43;100677.74;;;21.69;59.41
40794;BME280;26502;51.886;15.604;2022-08-01T19:02:51;100679.50;;;21.63;59.51
40794;BME280;26502;51.886;15.604;2022-08-01T19:07:58;100686.11;;;21.62;59.75
40794;BME280;26502;51.886;15.604;2022-08-01T19:13:06;100697.13;;;21.50;59.80
40794;BME280;26502;51.886;15.604;2022-08-01T19:18:13;100702.98;;;21.42;60.13
40794;BME280;26502;51.886;15.604;2022-08-01T19:23:22;100713.22;;;21.40;60.19
40794;BME280;26502;51.886;15.604;2022-08-01T19:28:49;100718.98;;;21.33;60.26
40794;BME280;26502;51.886;15.604;2022-08-01T19:33:58;100723.88;;;21.26;60.67
40794;BME280;26502;51.886;15.604;2022-08-01T19:39:06;100733.04;;;21.27;60.83
40794;BME280;26502;51.886;15.604;2022-08-01T19:44:16;100733.82;;;21.26;60.76
40794;BME280;26502;51.886;15.604;2022-08-01T19:49:24;100738.12;;;21.24;60.93
40794;BME280;26502;51.886;15.604;2022-08-01T19:54:34;100741.83;;;21.20;61.16
40794;BME280;26502;51.886;15.604;2022-08-01T19:59:45;100740.61;;;21.15;61.23
40794;BME280;26502;51.886;15.604;2022-08-01T20:04:53;100743.95;;;21.23;61.48
40794;BME280;26502;51.886;15.604;2022-08-01T20:10:00;100748.06;;;21.19;61.44
40794;BME280;26502;51.886;15.604;2022-08-01T20:15:07;100748.59;;;21.15;61.76
40794;BME280;26502;51.886;15.604;2022-08-01T20:20:15;100750.48;;;21.09;61.76
40794;BME280;26502;51.886;15.604;2022-08-01T20:25:23;100751.09;;;21.05;61.87
40794;BME280;26502;51.886;15.604;2022-08-01T20:30:33;100756.67;;;20.93;61.88
40794;BME280;26502;51.886;15.604;2022-08-01T20:35:40;100759.02;;;20.86;62.18
40794;BME280;26502;51.886;15.604;2022-08-01T20:40:48;100763.50;;;20.64;62.20
40794;BME280;26502;51.886;15.604;2022-08-01T20:45:57;100769.38;;;20.48;62.54
40794;BME280;26502;51.886;15.604;2022-08-01T20:51:04;100774.75;;;20.38;62.89
40794;BME280;26502;51.886;15.604;2022-08-01T20:56:30;100774.42;;;20.33;63.08
40794;BME280;26502;51.886;15.604;2022-08-01T21:01:47;100775.75;;;20.42;63.58
40794;BME280;26502;51.886;15.604;2022-08-01T21:07:02;100774.42;;;20.45;63.64
40794;BME280;26502;51.886;15.604;2022-08-01T21:12:14;100773.89;;;20.43;63.65
40794;BME280;26502;51.886;15.604;2022-08-01T21:17:31;100781.90;;;20.24;63.58
40794;BME280;26502;51.886;15.604;2022-08-01T21:22:50;100785.48;;;20.04;63.77
40794;BME280;26502;51.886;15.604;2022-08-01T21:28:01;100793.20;;;19.91;64.08
40794;BME280;26502;51.886;15.604;2022-08-01T21:33:11;100800.69;;;19.87;64.32
40794;BME280;26502;51.886;15.604;2022-08-01T21:38:19;100801.27;;;19.95;64.58
40794;BME280;26502;51.886;15.604;2022-08-01T21:43:28;100801.13;;;19.92;64.65
40794;BME280;26502;51.886;15.604;2022-08-01T21:48:38;100808.92;;;19.80;64.79
40794;BME280;26502;51.886;15.604;2022-08-01T21:53:51;100806.73;;;19.70;64.80
40794;BME280;26502;51.886;15.604;2022-08-01T21:59:07;100805.23;;;19.60;65.03
40794;BME280;26502;51.886;15.604;2022-08-01T22:04:19;100812.52;;;19.48;65.02
40794;BME280;26502;51.886;15.604;2022-08-01T22:09:30;100813.58;;;19.32;65.22
40794;BME280;26502;51.886;15.604;2022-08-01T22:14:41;100810.80;;;19.26;65.37
40794;BME280;26502;51.886;15.604;2022-08-01T22:19:49;100811.40;;;19.25;65.42
40794;BME280;26502;51.886;15.604;2022-08-01T22:24:59;100811.10;;;19.15;65.45
40794;BME280;26502;51.886;15.604;2022-08-01T22:30:08;100811.86;;;18.93;65.61
40794;BME280;26502;51.886;15.604;2022-08-01T22:35:17;100822.70;;;18.69;65.88
40794;BME280;26502;51.886;15.604;2022-08-01T22:40:25;100821.84;;;18.60;66.07
40794;BME280;26502;51.886;15.604;2022-08-01T22:45:38;100824.23;;;18.60;66.19
40794;BME280;26502;51.886;15.604;2022-08-01T22:50:50;100827.81;;;18.57;66.19
40794;BME280;26502;51.886;15.604;2022-08-01T22:56:07;100827.50;;;18.39;66.28
40794;BME280;26502;51.886;15.604;2022-08-01T23:01:20;100828.42;;;18.24;66.61
40794;BME280;26502;51.886;15.604;2022-08-01T23:06:32;100832.45;;;18.23;66.81
40794;BME280;26502;51.886;15.604;2022-08-01T23:11:41;100839.66;;;18.05;66.64
40794;BME280;26502;51.886;15.604;2022-08-01T23:16:50;100846.13;;;17.81;67.01
40794;BME280;26502;51.886;15.604;2022-08-01T23:22:01;100851.37;;;17.90;67.34
40794;BME280;26502;51.886;15.604;2022-08-01T23:27:10;100847.67;;;17.88;67.34
40794;BME280;26502;51.886;15.604;2022-08-01T23:32:35;100851.24;;;17.82;67.25
40794;BME280;26502;51.886;15.604;2022-08-01T23:37:42;100851.64;;;17.70;67.28
40794;BME280;26502;51.886;15.604;2022-08-01T23:42:49;100853.77;;;17.52;67.25
40794;BME280;26502;51.886;15.604;2022-08-01T23:47:57;100858.55;;;17.22;67.33
40794;BME280;26502;51.886;15.604;2022-08-01T23:53:04;100858.67;;;17.07;67.77
40794;BME280;26502;51.886;15.604;2022-08-01T23:58:12;100860.92;;;17.02;68.03
